Weather reports worldwide

Advertisment
Ayamonte, Spain (8381): temperature & dewpoint: 17.05.2019 14:00:00 - 23.05.2019 14:00:00 (CEST)Ayamonte, Spain (8381): wind speed & gusts: 17.05.2019 14:00:00 - 23.05.2019 14:00:00 (CEST)Ayamonte, Spain (8381): wind direction: 17.05.2019 14:00:00 - 23.05.2019 14:00:00 (CEST)Ayamonte, Spain (8381): reduced air pressure: 17.05.2019 14:00:00 - 23.05.2019 14:00:00 (CEST)Ayamonte, Spain (8381): precipitation: 17.05.2019 14:00:00 - 23.05.2019 14:00:00 (CEST)
Date & Time tt [°C] td [°C] ff [km/h] ff [kn] fx [km/h] fx [kn] dd ppp [hPa] rr [mm]
23.05.2019 14:00:00 - - - - - - - - -
23.05.2019 13:00:00 28,0 12,7 7 4 25 14 NNW 1016,8 0,0
23.05.2019 12:00:00 25,2 11,8 7 4 20 11 N 1017,2 0,0
23.05.2019 11:00:00 24,0 13,0 4 2 20 11 N 1017,1 0,0
23.05.2019 10:00:00 20,8 12,0 6 4 21 11 NNW 1016,9 0,0
23.05.2019 09:00:00 19,0 11,8 5 3 19 11 NNW 1016,7 0,0
23.05.2019 08:00:00 17,4 11,2 9 5 20 11 NNW 1016,3 -
23.05.2019 07:00:00 17,5 11,1 8 4 23 13 NNW 1016,1 0,0
23.05.2019 06:00:00 18,1 11,4 8 5 23 12 NNW 1016,1 0,0
23.05.2019 05:00:00 18,9 11,4 8 5 22 12 N 1015,9 0,0
23.05.2019 04:00:00 19,6 11,9 10 5 24 13 NNW 1016,0 0,0
23.05.2019 03:00:00 20,4 11,9 10 5 22 12 NNW 1016,3 0,0
23.05.2019 02:00:00 20,8 12,0 10 5 25 13 NNW 1016,3 -
23.05.2019 01:00:00 21,7 11,4 10 5 26 14 NNW 1016,6 0,0
23.05.2019 00:00:00 22,6 12,5 11 6 23 12 NNW 1016,4 0,0
22.05.2019 23:00:00 19,5 12,2 3 2 7 4 WNW 1015,7 0,0
22.05.2019 22:00:00 20,5 12,7 3 2 11 6 WSW 1015,4 0,0
22.05.2019 21:00:00 21,8 13,7 6 4 14 8 WSW 1015,2 0,0
22.05.2019 20:00:00 22,5 14,3 9 5 17 9 WSW 1015,2 -
22.05.2019 19:00:00 23,6 14,3 10 6 21 11 WSW 1015,4 0,0
22.05.2019 18:00:00 22,5 14,0 12 6 20 11 SW 1015,6 0,0
22.05.2019 17:00:00 23,5 14,8 10 6 22 12 SW 1015,9 0,0
22.05.2019 16:00:00 22,3 13,9 14 7 22 12 SW 1016,2 0,0
22.05.2019 15:00:00 22,9 13,9 13 7 21 11 S 1016,5 0,0
22.05.2019 14:00:00 22,8 13,1 10 6 22 12 SSE 1016,5 -
22.05.2019 13:00:00 23,4 12,6 11 6 19 11 SE 1016,5 0,0
22.05.2019 12:00:00 24,1 13,7 8 5 16 8 ESE 1016,3 0,0
22.05.2019 11:00:00 22,9 13,7 4 2 11 6 E 1016,1 0,0
22.05.2019 10:00:00 19,6 13,1 6 3 16 8 NNW 1016,2 0,0
22.05.2019 09:00:00 17,6 13,2 7 4 19 10 N 1015,8 0,0
22.05.2019 08:00:00 16,1 12,4 4 2 15 8 N 1015,2 -
22.05.2019 07:00:00 16,0 12,2 5 3 22 12 NNW 1014,6 0,0
22.05.2019 06:00:00 16,4 12,3 9 5 24 13 NNW 1014,3 0,0
22.05.2019 05:00:00 16,6 12,1 11 6 27 14 NNW 1014,4 0,0
22.05.2019 04:00:00 16,8 11,9 13 7 26 14 NNW 1014,7 0,0
22.05.2019 03:00:00 16,9 11,3 11 6 30 16 NNW 1015,1 0,0
22.05.2019 02:00:00 17,3 11,3 12 6 29 16 NNW 1015,4 -
22.05.2019 01:00:00 17,9 11,7 12 6 31 17 NNW 1015,5 0,0
22.05.2019 00:00:00 19,5 11,8 14 8 34 18 NNW 1015,3 0,0
21.05.2019 23:00:00 20,9 11,0 16 9 30 16 NNW 1014,7 0,0
21.05.2019 22:00:00 21,3 12,7 8 5 18 10 NNW 1014,1 0,0
21.05.2019 21:00:00 20,1 13,6 9 5 23 13 WSW 1013,5 0,0
21.05.2019 20:00:00 21,0 13,7 12 7 26 14 SW 1013,1 -
21.05.2019 19:00:00 23,2 14,2 16 9 31 17 SW 1013,3 0,0
21.05.2019 18:00:00 23,4 14,4 18 10 31 17 WSW 1013,7 0,0
21.05.2019 17:00:00 22,9 13,9 20 11 34 18 SW 1014,0 0,0
21.05.2019 16:00:00 24,7 13,9 18 10 31 17 WSW 1014,5 0,0
21.05.2019 15:00:00 23,6 13,5 15 8 26 14 SW 1014,9 0,0
21.05.2019 14:00:00 24,7 12,6 7 4 20 11 NW 1015,2 -
21.05.2019 13:00:00 23,1 13,6 8 4 24 13 NW 1015,4 0,0
21.05.2019 12:00:00 21,1 13,3 11 6 26 14 NNW 1015,7 0,0
21.05.2019 11:00:00 19,7 12,7 9 5 22 12 NNW 1016,0 0,0
21.05.2019 10:00:00 17,9 12,3 16 9 30 16 NNW 1015,7 0,0
21.05.2019 09:00:00 17,0 13,0 10 5 25 13 NNW 1015,2 0,0
21.05.2019 08:00:00 15,7 12,4 6 3 18 10 NNW 1014,8 -
21.05.2019 07:00:00 15,2 12,0 5 3 18 10 N 1014,2 0,0
21.05.2019 06:00:00 15,4 11,6 9 5 29 16 NNW 1014,3 0,0
21.05.2019 05:00:00 15,7 11,2 14 8 32 18 NNW 1014,2 0,0
21.05.2019 04:00:00 16,3 11,2 14 8 31 17 NNW 1014,0 0,0
21.05.2019 03:00:00 17,0 11,0 13 7 30 16 NNW 1014,2 0,0
21.05.2019 02:00:00 17,6 11,0 14 8 29 16 NNW 1014,2 -
21.05.2019 01:00:00 18,1 11,2 13 7 34 18 NNW 1014,3 0,0
21.05.2019 00:00:00 18,7 11,2 16 8 35 19 NNW 1014,2 0,0
20.05.2019 23:00:00 19,8 11,3 10 5 27 15 NNW 1013,6 0,0
20.05.2019 22:00:00 21,3 11,9 9 5 25 13 NW 1012,7 0,0
20.05.2019 21:00:00 20,5 14,6 2 1 16 9 SW 1011,7 0,0
20.05.2019 20:00:00 20,5 13,9 11 6 25 14 SW 1011,6 -
20.05.2019 19:00:00 21,7 14,3 13 7 26 14 SW 1012,1 0,0
20.05.2019 18:00:00 21,6 12,7 16 9 35 19 SW 1012,4 0,0
20.05.2019 17:00:00 23,1 11,2 19 10 33 18 SW 1012,6 0,0
20.05.2019 16:00:00 22,9 11,3 20 11 32 17 SW 1013,3 0,0
20.05.2019 15:00:00 23,1 11,4 16 9 29 16 SW 1013,7 0,0
20.05.2019 14:00:00 23,2 8,1 16 9 29 16 WSW 1014,0 -
20.05.2019 13:00:00 23,6 8,1 13 7 22 12 WSW 1013,9 0,0
20.05.2019 12:00:00 22,1 6,7 3 2 16 9 NNW 1014,0 0,0
20.05.2019 11:00:00 20,2 6,8 5 3 20 11 NNW 1014,2 0,0
20.05.2019 10:00:00 17,3 7,3 10 5 22 12 NNW 1014,2 0,0
20.05.2019 09:00:00 15,4 8,0 5 3 17 9 N 1013,5 0,0
20.05.2019 08:00:00 14,2 8,1 5 3 14 8 N 1013,1 -
20.05.2019 07:00:00 13,9 8,3 1 1 13 7 NE 1012,5 0,0
20.05.2019 06:00:00 15,0 9,3 5 3 17 9 N 1012,3 0,0
20.05.2019 05:00:00 15,6 9,9 6 4 19 10 NW 1012,3 0,0
20.05.2019 04:00:00 16,2 10,8 6 4 18 10 NNW 1012,5 0,0
20.05.2019 03:00:00 16,9 11,3 9 5 19 10 NNW 1012,8 0,0
20.05.2019 02:00:00 17,6 11,4 4 2 19 10 NNW 1013,2 -
20.05.2019 01:00:00 17,9 11,7 6 3 16 9 NW 1013,2 0,0
20.05.2019 00:00:00 18,8 11,6 5 3 14 8 NW 1013,1 0,0
19.05.2019 23:00:00 20,1 11,6 6 3 22 12 NW 1012,8 0,0
19.05.2019 22:00:00 21,2 11,8 9 5 23 12 NNW 1011,9 0,0
19.05.2019 21:00:00 21,8 13,2 8 4 27 15 WNW 1011,6 0,0
19.05.2019 20:00:00 20,0 13,9 17 9 36 19 WSW 1011,2 -
19.05.2019 19:00:00 20,2 14,3 22 12 37 20 WSW 1011,2 0,0
19.05.2019 18:00:00 21,9 14,8 22 12 36 19 WSW 1011,6 0,0
19.05.2019 17:00:00 22,0 14,6 23 12 40 22 WSW 1012,1 0,0
19.05.2019 16:00:00 20,4 13,2 24 13 37 20 SW 1013,0 0,0
19.05.2019 15:00:00 20,5 13,5 21 12 36 19 SW 1013,5 0,0
19.05.2019 14:00:00 21,4 13,4 19 10 31 17 SW 1013,9 -
19.05.2019 13:00:00 20,7 12,1 18 10 29 16 SW 1014,1 0,0
19.05.2019 12:00:00 21,8 11,2 10 5 21 12 WNW 1014,2 0,0
19.05.2019 11:00:00 18,5 10,3 8 4 21 11 NNW 1014,9 0,0
19.05.2019 10:00:00 17,0 9,9 5 3 21 12 NNW 1014,8 0,0
19.05.2019 09:00:00 16,3 10,2 8 4 18 10 NNW 1014,7 0,0
19.05.2019 08:00:00 15,2 9,3 5 3 17 9 NNW 1014,5 -
19.05.2019 07:00:00 15,2 8,9 8 4 19 11 NNW 1014,0 0,0
19.05.2019 06:00:00 15,2 8,9 10 6 21 12 NNW 1014,1 0,0
19.05.2019 05:00:00 15,3 8,8 11 6 24 13 NNW 1014,2 0,0
19.05.2019 04:00:00 15,5 8,7 9 5 25 14 NNW 1014,1 0,0
19.05.2019 03:00:00 15,9 8,9 11 6 24 13 NNW 1014,5 0,0
19.05.2019 02:00:00 16,1 8,8 11 6 23 12 NNW 1014,7 -
19.05.2019 01:00:00 16,2 8,4 7 4 20 11 NW 1015,3 0,0
19.05.2019 00:00:00 16,8 8,3 8 4 23 12 NNW 1015,5 0,0
18.05.2019 23:00:00 17,6 8,1 9 5 26 14 NW 1015,1 0,0
18.05.2019 22:00:00 18,7 8,1 10 6 29 15 NNW 1014,7 0,0
18.05.2019 21:00:00 20,2 7,8 12 6 32 18 NNW 1014,0 0,0
18.05.2019 20:00:00 21,5 8,0 13 7 29 16 NNW 1013,4 -
18.05.2019 19:00:00 22,7 8,4 13 7 31 17 NNW 1013,4 0,0
18.05.2019 18:00:00 23,3 8,1 13 7 31 17 NNW 1013,1 0,0
18.05.2019 17:00:00 24,0 8,8 12 6 30 16 NNW 1013,1 0,0
18.05.2019 16:00:00 23,6 8,4 9 5 31 17 NW 1013,6 0,0
18.05.2019 15:00:00 22,6 8,3 13 7 32 17 NNW 1014,3 0,0
18.05.2019 14:00:00 21,6 7,8 14 7 32 17 NNW 1014,6 -
18.05.2019 13:00:00 20,1 7,4 12 7 30 16 NNW 1014,7 0,0
18.05.2019 12:00:00 19,2 7,6 13 7 31 17 NNW 1015,1 0,0
18.05.2019 11:00:00 17,8 7,6 13 7 34 18 NNW 1015,0 0,0
18.05.2019 10:00:00 16,3 7,6 10 5 29 15 NNW 1014,8 0,0
18.05.2019 09:00:00 14,5 8,0 6 4 29 16 NNW 1014,8 0,0
18.05.2019 08:00:00 13,7 7,4 10 5 29 16 NNW 1014,4 -
18.05.2019 07:00:00 13,8 7,3 10 6 27 15 NNW 1013,9 0,0
18.05.2019 06:00:00 14,0 7,1 11 6 29 16 NNW 1013,6 0,0
18.05.2019 05:00:00 14,4 6,5 13 7 29 16 NNW 1013,5 0,0
18.05.2019 04:00:00 14,6 6,7 12 6 32 17 NNW 1013,9 0,0
18.05.2019 03:00:00 15,1 6,4 13 7 30 16 NNW 1014,5 0,0
18.05.2019 02:00:00 15,8 6,2 11 6 32 17 NNW 1014,6 -
18.05.2019 01:00:00 16,7 6,2 15 8 29 16 NNW 1014,7 0,0
18.05.2019 00:00:00 17,7 6,8 16 9 32 18 NNW 1014,7 0,0
17.05.2019 23:00:00 18,8 7,8 10 6 23 13 NNW 1014,2 0,0
17.05.2019 22:00:00 20,7 6,5 12 7 32 18 NNW 1013,4 0,0
17.05.2019 21:00:00 21,9 7,0 11 6 25 13 NNW 1012,6 0,0
17.05.2019 20:00:00 23,3 7,8 8 4 27 15 NNW 1012,6 -
17.05.2019 19:00:00 23,6 7,7 10 6 31 17 NNW 1012,9 0,0
17.05.2019 18:00:00 24,0 8,0 11 6 28 15 NNW 1013,2 0,0
17.05.2019 17:00:00 23,8 8,3 10 5 30 16 NNW 1013,6 0,0
17.05.2019 16:00:00 23,5 8,4 14 8 34 19 NNW 1014,1 0,0
17.05.2019 15:00:00 22,4 8,5 12 7 30 16 NNW 1014,7 0,0
17.05.2019 14:00:00 21,6 8,1 13 7 34 18 NNW 1015,1 -

tt = temperature
td = dewpoint
ff = wind speed
fx = gusts
dd = wind direction
ppp = reduced air pressure
rr = precipitation

Next stations